UAL767 KMCI-KORD
Flight info
| Callsign | UAL767 |
|---|---|
| Flight time | 1h 3m |
| Altitude | 39000 |
| Route | ROYAL2 BODYN LOAMY BENKY6 |
| Aircraft | A319/M-SDE3FGHIRWY/LB1 |
Departure
| Time | 2026-05-08 00:32 |
|---|---|
| Airport | Kansas City International Airport (KMCI) |
Arrival
| Time | 2026-05-08 01:35 |
|---|---|
| Airport | Chicago O'Hare International Airport (KORD) |
| Time | Latitude | Longitude | Altitude | Speed | Heading |
|---|---|---|---|---|---|
| 2026-05-07 23:56 | 39.30056 | -94.72153 | 1014 ft | 0 kts | 283° |
| 2026-05-08 00:20 | 39.30050 | -94.72125 | 1014 ft | 4 kts | 290° |
| 2026-05-08 00:20 | 39.30038 | -94.72094 | 1014 ft | 4 kts | 316° |
| 2026-05-08 00:20 | 39.30020 | -94.72083 | 1014 ft | 1 kts | 13° |
| 2026-05-08 00:21 | 39.30015 | -94.72084 | 1014 ft | 0 kts | 13° |
| 2026-05-08 00:24 | 39.30028 | -94.72080 | 1014 ft | 4 kts | 13° |
| 2026-05-08 00:24 | 39.30071 | -94.72066 | 1013 ft | 8 kts | 14° |
| 2026-05-08 00:24 | 39.30128 | -94.72053 | 1013 ft | 8 kts | 354° |
| 2026-05-08 00:24 | 39.30156 | -94.72105 | 1012 ft | 7 kts | 283° |
| 2026-05-08 00:25 | 39.30167 | -94.72169 | 1012 ft | 8 kts | 283° |
| 2026-05-08 00:25 | 39.30180 | -94.72238 | 1012 ft | 8 kts | 283° |
| 2026-05-08 00:25 | 39.30193 | -94.72312 | 1012 ft | 9 kts | 283° |
| 2026-05-08 00:25 | 39.30225 | -94.72383 | 1012 ft | 11 kts | 344° |
| 2026-05-08 00:26 | 39.30320 | -94.72365 | 1011 ft | 14 kts | 14° |
| 2026-05-08 00:26 | 39.30421 | -94.72334 | 1010 ft | 17 kts | 13° |
| 2026-05-08 00:26 | 39.30553 | -94.72296 | 1008 ft | 21 kts | 11° |
| 2026-05-08 00:26 | 39.30692 | -94.72254 | 1006 ft | 20 kts | 13° |
| 2026-05-08 00:27 | 39.30835 | -94.72211 | 1005 ft | 16 kts | 12° |
| 2026-05-08 00:27 | 39.30941 | -94.72181 | 1003 ft | 16 kts | 13° |
| 2026-05-08 00:27 | 39.31056 | -94.72146 | 1002 ft | 18 kts | 12° |
| 2026-05-08 00:27 | 39.31153 | -94.72118 | 1001 ft | 15 kts | 12° |
| 2026-05-08 00:28 | 39.31259 | -94.72088 | 1000 ft | 17 kts | 13° |
| 2026-05-08 00:28 | 39.31374 | -94.72053 | 998 ft | 16 kts | 13° |
| 2026-05-08 00:28 | 39.31493 | -94.72017 | 1002 ft | 19 kts | 13° |
| 2026-05-08 00:28 | 39.31630 | -94.71977 | 995 ft | 21 kts | 13° |
| 2026-05-08 00:29 | 39.31779 | -94.71933 | 994 ft | 20 kts | 13° |
| 2026-05-08 00:29 | 39.31921 | -94.71891 | 995 ft | 22 kts | 13° |
| 2026-05-08 00:29 | 39.32046 | -94.71853 | 991 ft | 15 kts | 12° |
| 2026-05-08 00:29 | 39.32131 | -94.71828 | 990 ft | 9 kts | 14° |
| 2026-05-08 00:30 | 39.32171 | -94.71847 | 990 ft | 5 kts | 309° |
| 2026-05-08 00:30 | 39.32183 | -94.71901 | 992 ft | 7 kts | 283° |
| 2026-05-08 00:30 | 39.32196 | -94.71978 | 992 ft | 10 kts | 282° |
| 2026-05-08 00:30 | 39.32212 | -94.72069 | 990 ft | 8 kts | 283° |
| 2026-05-08 00:31 | 39.32191 | -94.72091 | 997 ft | 3 kts | 188° |
| 2026-05-08 00:31 | 39.32119 | -94.72111 | 997 ft | 30 kts | 193° |
| 2026-05-08 00:31 | 39.31713 | -94.72232 | 995 ft | 89 kts | 192° |
| 2026-05-08 00:31 | 39.30927 | -94.72463 | 1004 ft | 143 kts | 193° |
| 2026-05-08 00:32 | 39.29889 | -94.72776 | 1464 ft | 155 kts | 194° |
| 2026-05-08 00:32 | 39.29192 | -94.72987 | 1967 ft | 156 kts | 195° |
| 2026-05-08 00:32 | 39.28135 | -94.73318 | 2759 ft | 156 kts | 197° |
| 2026-05-08 00:32 | 39.26627 | -94.73797 | 3397 ft | 181 kts | 198° |
| 2026-05-08 00:33 | 39.25329 | -94.73974 | 3948 ft | 199 kts | 174° |
| 2026-05-08 00:33 | 39.24015 | -94.73075 | 4332 ft | 237 kts | 141° |
| 2026-05-08 00:33 | 39.23326 | -94.71854 | 4628 ft | 263 kts | 119° |
| 2026-05-08 00:33 | 39.22996 | -94.68601 | 5547 ft | 294 kts | 79° |
| 2026-05-08 00:34 | 39.23431 | -94.66937 | 6153 ft | 298 kts | 60° |
| 2026-05-08 00:34 | 39.24702 | -94.64844 | 7157 ft | 297 kts | 41° |
| 2026-05-08 00:34 | 39.26150 | -94.62951 | 8317 ft | 296 kts | 40° |
| 2026-05-08 00:34 | 39.27577 | -94.61031 | 9456 ft | 296 kts | 40° |
| 2026-05-08 00:35 | 39.28981 | -94.59091 | 10517 ft | 296 kts | 40° |
| 2026-05-08 00:35 | 39.30526 | -94.57265 | 11070 ft | 310 kts | 31° |
| 2026-05-08 00:35 | 39.32313 | -94.55570 | 11591 ft | 325 kts | 29° |
| 2026-05-08 00:35 | 39.34178 | -94.53853 | 12352 ft | 333 kts | 28° |
| 2026-05-08 00:36 | 39.36091 | -94.52125 | 13175 ft | 337 kts | 27° |
| 2026-05-08 00:36 | 39.37996 | -94.50367 | 14138 ft | 337 kts | 28° |
| 2026-05-08 00:36 | 39.39911 | -94.48550 | 14764 ft | 346 kts | 29° |
| 2026-05-08 00:36 | 39.41832 | -94.46693 | 15442 ft | 351 kts | 29° |
| 2026-05-08 00:37 | 39.43799 | -94.44788 | 16144 ft | 356 kts | 29° |
| 2026-05-08 00:37 | 39.45807 | -94.42876 | 16851 ft | 361 kts | 28° |
| 2026-05-08 00:37 | 39.47850 | -94.40962 | 17579 ft | 365 kts | 28° |
| 2026-05-08 00:38 | 39.52040 | -94.37041 | 18791 ft | 377 kts | 28° |
| 2026-05-08 00:38 | 39.54160 | -94.35008 | 19439 ft | 381 kts | 28° |
| 2026-05-08 00:38 | 39.56272 | -94.32973 | 20075 ft | 385 kts | 28° |
| 2026-05-08 00:38 | 39.58430 | -94.30889 | 20713 ft | 389 kts | 28° |
| 2026-05-08 00:39 | 39.60613 | -94.28786 | 21345 ft | 392 kts | 28° |
| 2026-05-08 00:39 | 39.62812 | -94.26673 | 21973 ft | 396 kts | 28° |
| 2026-05-08 00:39 | 39.65043 | -94.24538 | 22588 ft | 400 kts | 28° |
| 2026-05-08 00:39 | 39.67290 | -94.22388 | 23204 ft | 404 kts | 28° |
| 2026-05-08 00:40 | 39.69564 | -94.20213 | 23761 ft | 408 kts | 28° |
| 2026-05-08 00:40 | 39.71858 | -94.18016 | 24242 ft | 412 kts | 28° |
| 2026-05-08 00:40 | 39.74174 | -94.15797 | 24702 ft | 416 kts | 28° |
| 2026-05-08 00:40 | 39.76494 | -94.13485 | 25153 ft | 426 kts | 32° |
| 2026-05-08 00:41 | 39.78660 | -94.10796 | 25604 ft | 434 kts | 36° |
| 2026-05-08 00:41 | 39.80826 | -94.08033 | 26048 ft | 438 kts | 36° |
| 2026-05-08 00:41 | 39.83017 | -94.05240 | 26492 ft | 443 kts | 36° |
| 2026-05-08 00:41 | 39.85199 | -94.02461 | 26927 ft | 447 kts | 36° |
| 2026-05-08 00:42 | 39.87483 | -93.99560 | 27357 ft | 451 kts | 36° |
| 2026-05-08 00:42 | 39.89686 | -93.96756 | 27776 ft | 455 kts | 36° |
| 2026-05-08 00:42 | 39.91957 | -93.93859 | 28204 ft | 459 kts | 36° |
| 2026-05-08 00:42 | 39.94249 | -93.90926 | 28640 ft | 463 kts | 36° |
| 2026-05-08 00:43 | 39.96557 | -93.87973 | 29080 ft | 467 kts | 36° |
| 2026-05-08 00:43 | 39.98883 | -93.84994 | 29521 ft | 471 kts | 36° |
| 2026-05-08 00:43 | 40.01232 | -93.81983 | 29949 ft | 475 kts | 36° |
| 2026-05-08 00:43 | 40.03594 | -93.78954 | 30317 ft | 478 kts | 36° |
| 2026-05-08 00:44 | 40.05944 | -93.75934 | 30652 ft | 482 kts | 37° |
| 2026-05-08 00:44 | 40.08340 | -93.72855 | 31002 ft | 485 kts | 37° |
| 2026-05-08 00:44 | 40.10660 | -93.69606 | 31336 ft | 495 kts | 44° |
| 2026-05-08 00:44 | 40.12655 | -93.65879 | 31664 ft | 507 kts | 53° |
| 2026-05-08 00:45 | 40.14251 | -93.61727 | 31985 ft | 517 kts | 63° |
| 2026-05-08 00:45 | 40.15386 | -93.57236 | 32309 ft | 525 kts | 73° |
| 2026-05-08 00:45 | 40.16087 | -93.52523 | 32704 ft | 528 kts | 77° |
| 2026-05-08 00:45 | 40.16728 | -93.47802 | 33166 ft | 528 kts | 77° |
| 2026-05-08 00:46 | 40.17373 | -93.43083 | 33615 ft | 528 kts | 77° |
| 2026-05-08 00:46 | 40.18019 | -93.38358 | 34042 ft | 528 kts | 77° |
| 2026-05-08 00:46 | 40.18654 | -93.33692 | 34430 ft | 528 kts | 77° |
| 2026-05-08 00:46 | 40.19292 | -93.28965 | 34830 ft | 528 kts | 77° |
| 2026-05-08 00:47 | 40.19927 | -93.24228 | 35228 ft | 528 kts | 78° |
| 2026-05-08 00:47 | 40.20553 | -93.19513 | 35627 ft | 527 kts | 78° |
| 2026-05-08 00:47 | 40.21179 | -93.14788 | 36009 ft | 527 kts | 78° |
| 2026-05-08 00:47 | 40.21804 | -93.10073 | 36385 ft | 526 kts | 78° |
| 2026-05-08 00:48 | 40.22428 | -93.05354 | 36753 ft | 526 kts | 78° |
| 2026-05-08 00:48 | 40.23053 | -93.00636 | 37109 ft | 526 kts | 78° |
| 2026-05-08 00:48 | 40.23669 | -92.95984 | 37442 ft | 526 kts | 78° |
| 2026-05-08 00:48 | 40.24291 | -92.91264 | 37779 ft | 526 kts | 78° |
| 2026-05-08 00:49 | 40.24909 | -92.86547 | 38091 ft | 527 kts | 78° |
| 2026-05-08 00:49 | 40.25527 | -92.81817 | 38409 ft | 527 kts | 78° |
| 2026-05-08 00:49 | 40.26142 | -92.77091 | 38686 ft | 527 kts | 78° |
| 2026-05-08 00:49 | 40.26759 | -92.72352 | 38876 ft | 528 kts | 78° |
| 2026-05-08 00:50 | 40.27370 | -92.67614 | 38938 ft | 527 kts | 78° |
| 2026-05-08 00:50 | 40.28571 | -92.58218 | 38937 ft | 527 kts | 78° |
| 2026-05-08 00:51 | 40.29785 | -92.48688 | 38941 ft | 527 kts | 78° |
| 2026-05-08 00:51 | 40.30974 | -92.39288 | 38941 ft | 527 kts | 78° |
| 2026-05-08 00:52 | 40.32168 | -92.29808 | 38950 ft | 527 kts | 78° |
| 2026-05-08 00:52 | 40.33357 | -92.20321 | 38947 ft | 528 kts | 78° |
| 2026-05-08 00:53 | 40.34806 | -92.10919 | 38958 ft | 524 kts | 69° |
| 2026-05-08 00:53 | 40.36959 | -92.01857 | 38951 ft | 524 kts | 69° |
| 2026-05-08 00:54 | 40.39119 | -91.92727 | 38959 ft | 524 kts | 69° |
| 2026-05-08 00:54 | 40.41263 | -91.83581 | 38949 ft | 525 kts | 69° |
| 2026-05-08 00:55 | 40.43753 | -91.74642 | 38945 ft | 519 kts | 61° |
| 2026-05-08 00:55 | 40.46687 | -91.66043 | 38948 ft | 519 kts | 61° |
| 2026-05-08 00:56 | 40.49626 | -91.57368 | 38944 ft | 520 kts | 61° |
| 2026-05-08 00:56 | 40.52552 | -91.48692 | 38944 ft | 520 kts | 61° |
| 2026-05-08 00:57 | 40.55471 | -91.39989 | 38943 ft | 520 kts | 61° |
| 2026-05-08 00:57 | 40.58404 | -91.31366 | 38935 ft | 520 kts | 60° |
| 2026-05-08 00:58 | 40.61387 | -91.22697 | 38938 ft | 520 kts | 60° |
| 2026-05-08 00:58 | 40.64360 | -91.14009 | 38951 ft | 521 kts | 60° |
| 2026-05-08 00:59 | 40.67314 | -91.05292 | 38951 ft | 521 kts | 61° |
| 2026-05-08 00:59 | 40.70236 | -90.96640 | 38953 ft | 521 kts | 61° |
| 2026-05-08 01:00 | 40.73178 | -90.87919 | 38955 ft | 520 kts | 61° |
| 2026-05-08 01:00 | 40.76121 | -90.79201 | 38734 ft | 520 kts | 60° |
| 2026-05-08 01:00 | 40.77591 | -90.74828 | 38505 ft | 520 kts | 61° |
| 2026-05-08 01:01 | 40.79051 | -90.70468 | 38228 ft | 520 kts | 61° |
| 2026-05-08 01:01 | 40.80506 | -90.66107 | 37915 ft | 519 kts | 61° |
| 2026-05-08 01:01 | 40.81948 | -90.61782 | 37156 ft | 523 kts | 61° |
| 2026-05-08 01:01 | 40.83411 | -90.57388 | 36422 ft | 525 kts | 61° |
| 2026-05-08 01:02 | 40.84887 | -90.52961 | 35660 ft | 527 kts | 61° |
| 2026-05-08 01:02 | 40.86366 | -90.48532 | 34994 ft | 526 kts | 61° |
| 2026-05-08 01:02 | 40.87831 | -90.44139 | 34333 ft | 518 kts | 61° |
| 2026-05-08 01:02 | 40.89257 | -90.39848 | 33856 ft | 503 kts | 61° |
| 2026-05-08 01:03 | 40.90657 | -90.35629 | 33316 ft | 499 kts | 60° |
| 2026-05-08 01:03 | 40.92045 | -90.31457 | 32834 ft | 494 kts | 60° |
| 2026-05-08 01:03 | 40.93421 | -90.27314 | 32332 ft | 490 kts | 60° |
| 2026-05-08 01:03 | 40.94783 | -90.23204 | 31832 ft | 486 kts | 60° |
| 2026-05-08 01:04 | 40.96114 | -90.19179 | 31337 ft | 482 kts | 60° |
| 2026-05-08 01:04 | 40.97451 | -90.15133 | 30855 ft | 478 kts | 60° |
| 2026-05-08 01:04 | 40.98776 | -90.11119 | 30365 ft | 474 kts | 60° |
| 2026-05-08 01:04 | 41.00088 | -90.07134 | 29861 ft | 471 kts | 60° |
| 2026-05-08 01:05 | 41.01388 | -90.03174 | 29380 ft | 466 kts | 60° |
| 2026-05-08 01:05 | 41.02668 | -89.99263 | 28903 ft | 460 kts | 60° |
| 2026-05-08 01:05 | 41.03934 | -89.95401 | 28468 ft | 455 kts | 60° |
| 2026-05-08 01:05 | 41.05193 | -89.91584 | 28028 ft | 450 kts | 59° |
| 2026-05-08 01:06 | 41.06443 | -89.87804 | 27605 ft | 445 kts | 59° |
| 2026-05-08 01:06 | 41.07681 | -89.84065 | 27193 ft | 441 kts | 59° |
| 2026-05-08 01:06 | 41.08889 | -89.80413 | 26788 ft | 437 kts | 59° |
| 2026-05-08 01:06 | 41.10103 | -89.76739 | 26389 ft | 433 kts | 59° |
| 2026-05-08 01:07 | 41.11305 | -89.73095 | 26001 ft | 430 kts | 59° |
| 2026-05-08 01:07 | 41.12499 | -89.69469 | 25594 ft | 427 kts | 59° |
| 2026-05-08 01:07 | 41.13680 | -89.65873 | 25184 ft | 424 kts | 58° |
| 2026-05-08 01:07 | 41.14853 | -89.62295 | 24775 ft | 421 kts | 58° |
| 2026-05-08 01:08 | 41.16018 | -89.58746 | 24350 ft | 418 kts | 57° |
| 2026-05-08 01:08 | 41.17261 | -89.55290 | 23931 ft | 412 kts | 54° |
| 2026-05-08 01:08 | 41.18572 | -89.51985 | 23503 ft | 408 kts | 52° |
| 2026-05-08 01:08 | 41.19942 | -89.48713 | 23015 ft | 404 kts | 51° |
| 2026-05-08 01:09 | 41.21314 | -89.45482 | 22579 ft | 399 kts | 51° |
| 2026-05-08 01:09 | 41.22660 | -89.42288 | 22147 ft | 394 kts | 52° |
| 2026-05-08 01:09 | 41.23977 | -89.39114 | 21710 ft | 390 kts | 52° |
| 2026-05-08 01:09 | 41.25267 | -89.35961 | 21270 ft | 387 kts | 52° |
| 2026-05-08 01:10 | 41.26537 | -89.32827 | 20837 ft | 383 kts | 53° |
| 2026-05-08 01:10 | 41.27790 | -89.29716 | 20395 ft | 380 kts | 53° |
| 2026-05-08 01:10 | 41.29030 | -89.26624 | 19961 ft | 377 kts | 53° |
| 2026-05-08 01:10 | 41.30258 | -89.23557 | 19534 ft | 375 kts | 53° |
| 2026-05-08 01:11 | 41.31462 | -89.20546 | 19102 ft | 372 kts | 54° |
| 2026-05-08 01:11 | 41.32673 | -89.17518 | 18675 ft | 370 kts | 54° |
| 2026-05-08 01:11 | 41.33877 | -89.14512 | 18248 ft | 368 kts | 54° |
| 2026-05-08 01:11 | 41.35071 | -89.11521 | 17884 ft | 362 kts | 54° |
| 2026-05-08 01:12 | 41.36243 | -89.08581 | 17466 ft | 358 kts | 55° |
| 2026-05-08 01:12 | 41.37406 | -89.05661 | 17052 ft | 355 kts | 55° |
| 2026-05-08 01:12 | 41.38558 | -89.02764 | 16632 ft | 352 kts | 55° |
| 2026-05-08 01:12 | 41.39701 | -88.99892 | 16214 ft | 350 kts | 55° |
| 2026-05-08 01:13 | 41.40825 | -88.97073 | 15819 ft | 348 kts | 56° |
| 2026-05-08 01:13 | 41.41956 | -88.94231 | 15410 ft | 346 kts | 56° |
| 2026-05-08 01:13 | 41.43079 | -88.91405 | 15004 ft | 345 kts | 56° |
| 2026-05-08 01:13 | 41.44200 | -88.88584 | 14605 ft | 344 kts | 56° |
| 2026-05-08 01:14 | 41.45311 | -88.85776 | 14193 ft | 342 kts | 57° |
| 2026-05-08 01:14 | 41.46420 | -88.82971 | 13787 ft | 341 kts | 57° |
| 2026-05-08 01:14 | 41.47527 | -88.80176 | 13352 ft | 340 kts | 57° |
| 2026-05-08 01:14 | 41.48622 | -88.77397 | 12950 ft | 337 kts | 57° |
| 2026-05-08 01:15 | 41.49693 | -88.74673 | 12553 ft | 335 kts | 57° |
| 2026-05-08 01:15 | 41.50774 | -88.71925 | 12116 ft | 334 kts | 57° |
| 2026-05-08 01:15 | 41.51852 | -88.69182 | 11663 ft | 333 kts | 57° |
| 2026-05-08 01:15 | 41.52931 | -88.66452 | 11404 ft | 332 kts | 57° |
| 2026-05-08 01:16 | 41.54009 | -88.63726 | 11150 ft | 331 kts | 57° |
| 2026-05-08 01:16 | 41.55079 | -88.61014 | 10888 ft | 330 kts | 57° |
| 2026-05-08 01:16 | 41.56149 | -88.58315 | 10643 ft | 327 kts | 55° |
| 2026-05-08 01:16 | 41.57450 | -88.55879 | 10396 ft | 318 kts | 42° |
| 2026-05-08 01:17 | 41.58941 | -88.53720 | 10147 ft | 315 kts | 40° |
| 2026-05-08 01:17 | 41.60401 | -88.51606 | 9934 ft | 310 kts | 40° |
| 2026-05-08 01:17 | 41.61839 | -88.49509 | 9808 ft | 304 kts | 40° |
| 2026-05-08 01:17 | 41.63261 | -88.47432 | 9676 ft | 302 kts | 40° |
| 2026-05-08 01:18 | 41.64669 | -88.45372 | 9544 ft | 298 kts | 41° |
| 2026-05-08 01:18 | 41.66062 | -88.43338 | 9403 ft | 296 kts | 40° |
| 2026-05-08 01:18 | 41.67454 | -88.41310 | 9269 ft | 296 kts | 41° |
| 2026-05-08 01:18 | 41.68845 | -88.39282 | 9141 ft | 295 kts | 41° |
| 2026-05-08 01:19 | 41.70229 | -88.37263 | 8995 ft | 294 kts | 41° |
| 2026-05-08 01:19 | 41.71637 | -88.35291 | 8868 ft | 290 kts | 36° |
| 2026-05-08 01:19 | 41.73118 | -88.33521 | 8731 ft | 290 kts | 35° |
| 2026-05-08 01:19 | 41.74621 | -88.31726 | 8610 ft | 289 kts | 35° |
| 2026-05-08 01:20 | 41.76118 | -88.29934 | 8483 ft | 288 kts | 35° |
| 2026-05-08 01:20 | 41.77614 | -88.28147 | 8334 ft | 288 kts | 36° |
| 2026-05-08 01:20 | 41.79107 | -88.26357 | 8210 ft | 288 kts | 36° |
| 2026-05-08 01:20 | 41.80596 | -88.24567 | 8080 ft | 287 kts | 36° |
| 2026-05-08 01:21 | 41.82082 | -88.22780 | 7948 ft | 286 kts | 36° |
| 2026-05-08 01:21 | 41.83565 | -88.20999 | 7825 ft | 286 kts | 36° |
| 2026-05-08 01:21 | 41.85025 | -88.19242 | 7696 ft | 286 kts | 36° |
| 2026-05-08 01:21 | 41.86492 | -88.17442 | 7568 ft | 287 kts | 40° |
| 2026-05-08 01:22 | 41.87675 | -88.15268 | 7441 ft | 293 kts | 58° |
| 2026-05-08 01:22 | 41.88369 | -88.12717 | 7314 ft | 289 kts | 76° |
| 2026-05-08 01:22 | 41.88522 | -88.10064 | 7190 ft | 282 kts | 90° |
| 2026-05-08 01:22 | 41.88490 | -88.07472 | 7063 ft | 274 kts | 89° |
| 2026-05-08 01:23 | 41.88470 | -88.04941 | 6939 ft | 270 kts | 89° |
| 2026-05-08 01:23 | 41.88458 | -88.02432 | 6813 ft | 268 kts | 89° |
| 2026-05-08 01:23 | 41.88446 | -87.99964 | 6690 ft | 267 kts | 89° |
| 2026-05-08 01:23 | 41.88433 | -87.97476 | 6567 ft | 266 kts | 89° |
| 2026-05-08 01:24 | 41.88430 | -87.94992 | 6445 ft | 266 kts | 88° |
| 2026-05-08 01:24 | 41.88432 | -87.92518 | 6320 ft | 265 kts | 88° |
| 2026-05-08 01:24 | 41.88435 | -87.90045 | 6190 ft | 264 kts | 88° |
| 2026-05-08 01:24 | 41.88438 | -87.87590 | 6058 ft | 263 kts | 88° |
| 2026-05-08 01:25 | 41.88441 | -87.85132 | 5929 ft | 263 kts | 89° |
| 2026-05-08 01:25 | 41.88441 | -87.82688 | 5801 ft | 262 kts | 89° |
| 2026-05-08 01:25 | 41.88439 | -87.80280 | 5696 ft | 261 kts | 89° |
| 2026-05-08 01:25 | 41.88438 | -87.77848 | 5569 ft | 260 kts | 89° |
| 2026-05-08 01:26 | 41.88436 | -87.75426 | 5437 ft | 260 kts | 89° |
| 2026-05-08 01:26 | 41.88432 | -87.73007 | 5309 ft | 259 kts | 89° |
| 2026-05-08 01:26 | 41.88428 | -87.70594 | 5182 ft | 258 kts | 90° |
| 2026-05-08 01:26 | 41.88424 | -87.68187 | 5057 ft | 257 kts | 90° |
| 2026-05-08 01:27 | 41.88420 | -87.65794 | 4928 ft | 257 kts | 90° |
| 2026-05-08 01:27 | 41.88415 | -87.63452 | 4799 ft | 244 kts | 90° |
| 2026-05-08 01:27 | 41.88409 | -87.61227 | 4671 ft | 233 kts | 90° |
| 2026-05-08 01:27 | 41.88533 | -87.59150 | 4532 ft | 221 kts | 70° |
| 2026-05-08 01:28 | 41.89362 | -87.57556 | 4446 ft | 205 kts | 33° |
| 2026-05-08 01:28 | 41.90651 | -87.56941 | 4319 ft | 194 kts | 1° |
| 2026-05-08 01:28 | 41.91988 | -87.56833 | 4182 ft | 192 kts | 356° |
| 2026-05-08 01:28 | 41.93289 | -87.56983 | 4077 ft | 185 kts | 334° |
| 2026-05-08 01:29 | 41.94367 | -87.57849 | 4032 ft | 179 kts | 317° |
| 2026-05-08 01:29 | 41.95338 | -87.58896 | 4030 ft | 178 kts | 314° |
| 2026-05-08 01:29 | 41.96078 | -87.60195 | 4031 ft | 175 kts | 297° |
| 2026-05-08 01:29 | 41.96528 | -87.61668 | 4030 ft | 172 kts | 279° |
| 2026-05-08 01:30 | 41.96575 | -87.63263 | 4032 ft | 171 kts | 269° |
| 2026-05-08 01:30 | 41.96576 | -87.64863 | 4018 ft | 171 kts | 269° |
| 2026-05-08 01:30 | 41.96578 | -87.66467 | 3935 ft | 171 kts | 269° |
| 2026-05-08 01:30 | 41.96579 | -87.68066 | 3755 ft | 171 kts | 269° |
| 2026-05-08 01:31 | 41.96580 | -87.69668 | 3541 ft | 171 kts | 269° |
| 2026-05-08 01:31 | 41.96581 | -87.71264 | 3315 ft | 171 kts | 269° |
| 2026-05-08 01:31 | 41.96582 | -87.72864 | 3087 ft | 170 kts | 269° |
| 2026-05-08 01:31 | 41.96583 | -87.74392 | 2859 ft | 155 kts | 269° |
| 2026-05-08 01:32 | 41.96583 | -87.75733 | 2662 ft | 133 kts | 269° |
| 2026-05-08 01:32 | 41.96583 | -87.76923 | 2494 ft | 124 kts | 268° |
| 2026-05-08 01:32 | 41.96583 | -87.78046 | 2329 ft | 120 kts | 268° |
| 2026-05-08 01:32 | 41.96583 | -87.79161 | 2171 ft | 119 kts | 268° |
| 2026-05-08 01:33 | 41.96583 | -87.80264 | 2009 ft | 118 kts | 268° |
| 2026-05-08 01:33 | 41.96582 | -87.81359 | 1857 ft | 117 kts | 268° |
| 2026-05-08 01:33 | 41.96581 | -87.82453 | 1698 ft | 117 kts | 268° |
| 2026-05-08 01:33 | 41.96581 | -87.83546 | 1528 ft | 117 kts | 267° |
| 2026-05-08 01:34 | 41.96579 | -87.84645 | 1365 ft | 117 kts | 268° |
| 2026-05-08 01:34 | 41.96576 | -87.85741 | 1174 ft | 118 kts | 269° |
| 2026-05-08 01:34 | 41.96583 | -87.86852 | 1020 ft | 119 kts | 268° |
| 2026-05-08 01:34 | 41.96582 | -87.87957 | 882 ft | 120 kts | 269° |
| 2026-05-08 01:35 | 41.96579 | -87.89074 | 738 ft | 119 kts | 268° |
| 2026-05-08 01:35 | 41.96575 | -87.90156 | 671 ft | 107 kts | 269° |
| 2026-05-08 01:35 | 41.96573 | -87.90944 | 669 ft | 60 kts | 270° |
| 2026-05-08 01:35 | 41.96602 | -87.91320 | 667 ft | 39 kts | 288° |
| 2026-05-08 01:36 | 41.96687 | -87.91537 | 669 ft | 25 kts | 300° |
| 2026-05-08 01:36 | 41.96735 | -87.91684 | 669 ft | 15 kts | 281° |
| 2026-05-08 01:36 | 41.96738 | -87.91840 | 669 ft | 18 kts | 270° |
| 2026-05-08 01:36 | 41.96736 | -87.91985 | 669 ft | 15 kts | 268° |
| 2026-05-08 01:37 | 41.96786 | -87.92082 | 666 ft | 15 kts | 0° |
| 2026-05-08 01:37 | 41.96905 | -87.92080 | 669 ft | 18 kts | 359° |
| 2026-05-08 01:37 | 41.97020 | -87.92070 | 669 ft | 12 kts | 29° |
| 2026-05-08 01:37 | 41.97038 | -87.91952 | 669 ft | 15 kts | 90° |
| 2026-05-08 01:38 | 41.97039 | -87.91800 | 669 ft | 18 kts | 90° |
| 2026-05-08 01:38 | 41.97040 | -87.91624 | 670 ft | 20 kts | 90° |
| 2026-05-08 01:38 | 41.97039 | -87.91421 | 670 ft | 23 kts | 90° |
| 2026-05-08 01:38 | 41.97039 | -87.91207 | 669 ft | 22 kts | 90° |
| 2026-05-08 01:39 | 41.97040 | -87.90991 | 669 ft | 16 kts | 89° |
| 2026-05-08 01:39 | 41.97091 | -87.90909 | 669 ft | 14 kts | 351° |
| 2026-05-08 01:39 | 41.97177 | -87.90996 | 669 ft | 17 kts | 320° |
| 2026-05-08 01:39 | 41.97268 | -87.91038 | 667 ft | 15 kts | 34° |
| 2026-05-08 01:40 | 41.97362 | -87.91036 | 669 ft | 17 kts | 320° |
| 2026-05-08 01:40 | 41.97444 | -87.91077 | 669 ft | 13 kts | 33° |
| 2026-05-08 01:40 | 41.97526 | -87.91022 | 669 ft | 15 kts | 64° |
| 2026-05-08 01:40 | 41.97573 | -87.90892 | 668 ft | 14 kts | 29° |
| 2026-05-08 01:41 | 41.97669 | -87.90868 | 669 ft | 14 kts | 8° |
| 2026-05-08 01:41 | 41.97764 | -87.90847 | 669 ft | 15 kts | 10° |
| 2026-05-08 01:41 | 41.97870 | -87.90821 | 669 ft | 16 kts | 9° |
| 2026-05-08 01:41 | 41.97976 | -87.90797 | 669 ft | 15 kts | 9° |
| 2026-05-08 01:42 | 41.98083 | -87.90775 | 666 ft | 15 kts | 2° |
| 2026-05-08 01:42 | 41.98172 | -87.90800 | 669 ft | 13 kts | 328° |
| 2026-05-08 01:42 | 41.98169 | -87.90861 | 669 ft | 0 kts | 225° |
| 2026-05-08 01:43 | 41.98154 | -87.90877 | 669 ft | 6 kts | 220° |
| 2026-05-08 01:44 | 41.98127 | -87.90920 | 669 ft | 2 kts | 231° |
| 2026-05-08 01:44 | 41.98122 | -87.90929 | 667 ft | 0 kts | 230° |